AirNav   SIMCOM
 
 1473 users online  

UT13 Number 18 Airport
South Jordan, Utah, USA

GOING TO SOUTH JORDAN?


FAA INFORMATION EFFECTIVE 09 NOVEMBER 2017

Location

FAA Identifier: UT13
Lat/Long: 40-33-50.0000N / 112-00-50.0000W
40-33.833333N / 112-00.833333W
40.5638889 / -112.0138889
(estimated)
Elevation: 4820 ft. / 1469 m (estimated)
Variation: 14E (1995)
From city: 3 miles E of SOUTH JORDAN, UT
Time zone: UTC -7 (UTC -6 during Daylight Saving Time)
Zip code: 84095

Airport Operations

Airport use: Private use. Permission required prior to landing
Activation date: 02/2000
Control tower: no
ARTCC: SALT LAKE CITY CENTER
FSS: CEDAR CITY FLIGHT SERVICE STATION
Attendance: UNATNDD
UNATNDD
Wind indicator: no
Segmented circle: no

Airport Communications

WX AWOS-3 at U42 (3 nm N): 134.425 (801-562-0271)
WX ASOS at SLC (14 nm N): PHONE 801-328-3567
WX AWOS-3 at TVY (16 nm W): 119.725 (435-882-6648)

Nearby radio navigation aids

VOR radial/distance  VOR name  Freq  Var
TCHr169/17.2WASATCH VORTAC116.8016E
FFUr333/17.7FAIRFIELD VORTAC116.6016E
PVUr312/24.8PROVO VOR/DME108.4015E
OGDr160/39.8OGDEN VORTAC115.7014E

Airport Services

Runway Information

Runway 18/36

Dimensions: 1100 x 120 ft. / 335 x 37 m
Surface: gravel/dirt, in fair condition
RUNWAY 18  RUNWAY 36
Traffic pattern: leftright
Obstructions: 40 ft. ant, marked and lighted, 500 ft. from runwaybldg

Airport Ownership and Management from official FAA records

Ownership: Privately-owned
Owner: WINGS WEST, L.C.
1780 WEST 9000 S., SUITE 301
WEST JORDAN, UT 84088
Phone 801-280-2524
Manager: T.A. BELCHAK
1780 WEST 9000 S., SUITE 301
WEST JORDAN, UT 84088
Phone 801-280-2524

Instrument Procedures

There are no published instrument procedures at UT13.

Some nearby airports with instrument procedures:

U42 - South Valley Regional Airport (3 nm N)
KSLC - Salt Lake City International Airport (14 nm N)
KTVY - Bolinder Field-Tooele Valley Airport (16 nm W)
KPVU - Provo Municipal Airport (25 nm SE)
KHCR - Heber City Municipal Airport - Russ McDonald Field (27 nm E)
 
Loc | Ops | Rwys | IFR | FBO | Links
Com | Nav | Svcs | Stats | Notes

TAC Air
 
Area around UT13 (Number 18 Airport)
 
Road maps at: MapQuest Bing Google
 
Aerial photo
No photo
 
Sectional chart

 
Airport distance calculator
Flying to Number 18 Airport? Find the distance to fly.

From to UT13

Sunrise and sunset
Times for 21-Nov-2017
 Local
(UTC-7)
 Zulu
(UTC)
Morning civil twilight06:5313:53
Sunrise07:2314:23
Sunset17:0500:05
Evening civil twilight17:3500:35

Current date and time
Zulu (UTC)  21-Nov-2017 18:45:13
Local (UTC-7)  21-Nov-2017 11:45:13
 
METAR
KU42 
3nm N 
211835Z AUTO 00000KT 10SM CLR 13/03 A3036 RMK AO1 T01260031
KSLC 
13nm N 
211754Z 00000KT 10SM FEW050 SCT085 BKN220 11/03 A3036 RMK AO2 SLP268 SCSL DSNT NE AND SE T01060033 10106 20067 51019 $
KTVY 
16nm W 
211835Z AUTO 18003KT 10SM CLR 11/03 A3036 RMK AO2
TAF
KSLC 
13nm N 
211735Z 2118/2224 34005KT P6SM SCT040 BKN090 FM220300 15005KT P6SM SCT070 BKN120
NOTAMs
Click for the latest NOTAMs
NOTAMs are issued by the DoD/FAA and will open in a separate window not controlled by AirNav.

 

 
 

Would you like to see your business listed on this page?

 If your business provides an interesting product or service to pilots, flight crews, aircraft, or users of the Number 18 Airport, you should consider listing it here.  To start the listing process, click on the button below
 
Add a business
 

Other Pages about Number 18 Airport

Update a link
 
Copyright © AirNav, LLC. All rights reserved. Privacy Policy  Contact